Metar z połowy godziny Komunikat METAR ze strony awiacja.imgw.pl Metar G30 EPKK METAR EPKK 200930Z 23004KT 190V270 9999 FEW026 24/18 Q1013 =